METAR Formatted Surface Weather Observation
Issued by NWS

Home | Current Version | Previous Version | Text Only | Print | Product List | Glossary On
Versions: 1 2
000
SAUS41 KLWX 211458
MTRNHK
METAR KNHK 211452Z 18003KT 10SM BKN050 BKN280 11/04 A3023 RMK AO2
SLP235 T01060039 51015 $



USA.gov is the U.S. government's official web portal to all federal, state and local government web resources and services.